createdAt,value
2022-12-24T00:01:06.887Z,7.15
2022-12-24T00:03:36.288Z,7.43
2022-12-24T00:06:16.686Z,6.93
2022-12-24T00:08:44.215Z,8.10
2022-12-24T00:11:11.627Z,7.55
2022-12-24T00:13:39.374Z,7.50
2022-12-24T00:16:07.058Z,7.65
2022-12-24T00:18:38.616Z,7.30
2022-12-24T00:21:09.028Z,7.03
2022-12-24T00:23:36.573Z,7.78
2022-12-24T00:26:04.087Z,7.30
2022-12-24T00:28:31.597Z,6.80
2022-12-24T00:30:59.064Z,8.27
2022-12-24T00:33:26.605Z,7.32
2022-12-24T00:35:54.097Z,7.93
2022-12-24T00:38:21.487Z,7.93
2022-12-24T00:40:48.947Z,7.13
2022-12-24T00:43:16.418Z,6.50
2022-12-24T00:45:44.028Z,6.85
2022-12-24T00:48:11.582Z,7.03
2022-12-24T00:50:39.040Z,7.60
2022-12-24T00:53:06.446Z,7.22
2022-12-24T00:55:33.945Z,6.68
2022-12-24T00:58:01.448Z,8.55
2022-12-24T01:00:28.949Z,7.13
2022-12-24T01:02:56.586Z,7.75
2022-12-24T01:05:24.323Z,7.97
2022-12-24T01:07:51.884Z,6.60
2022-12-24T01:10:20.501Z,7.35
2022-12-24T01:12:48.093Z,6.43
2022-12-24T01:15:15.836Z,7.43
2022-12-24T01:17:43.315Z,8.23
2022-12-24T01:20:17.749Z,7.63
2022-12-24T01:22:45.468Z,7.80
2022-12-24T01:25:13.005Z,7.97
2022-12-24T01:27:40.489Z,8.45
2022-12-24T01:30:10.007Z,8.07
2022-12-24T01:32:37.417Z,8.23
2022-12-24T01:35:05.742Z,7.75
2022-12-24T01:37:33.279Z,7.03
2022-12-24T01:40:19.228Z,7.70
2022-12-24T01:43:07.441Z,7.60
2022-12-24T01:45:54.573Z,7.78
2022-12-24T01:48:36.123Z,8.05
2022-12-24T01:51:27.835Z,8.43
2022-12-24T01:54:01.740Z,7.50
2022-12-24T01:56:30.897Z,7.90
2022-12-24T01:59:09.665Z,7.43
2022-12-24T02:01:37.340Z,7.88
2022-12-24T02:06:36.811Z,8.18
2022-12-24T02:09:04.260Z,8.30
2022-12-24T02:11:31.655Z,7.97
2022-12-24T02:14:01.392Z,8.27
2022-12-24T02:17:00.457Z,7.78
2022-12-24T02:19:36.717Z,8.63
2022-12-24T02:22:15.528Z,8.55
2022-12-24T02:24:49.109Z,7.57
2022-12-24T02:28:00.211Z,7.97
2022-12-24T02:30:36.656Z,7.88
2022-12-24T02:33:24.295Z,8.25
2022-12-24T02:35:53.890Z,8.45
2022-12-24T02:38:31.093Z,8.63
2022-12-24T02:41:05.862Z,8.03
2022-12-24T02:43:39.401Z,8.27
2022-12-24T02:46:12.519Z,9.07
2022-12-24T02:48:43.234Z,7.65
2022-12-24T02:51:11.602Z,8.43
2022-12-24T02:53:40.197Z,8.15
2022-12-24T02:56:41.299Z,8.45
2022-12-24T02:59:39.835Z,8.50
2022-12-24T03:02:07.377Z,8.23
2022-12-24T03:04:46.958Z,8.30
2022-12-24T03:07:34.861Z,8.13
2022-12-24T03:12:55.632Z,8.20
2022-12-24T03:15:25.355Z,9.05
2022-12-24T03:17:57.146Z,8.18
2022-12-24T03:20:36.540Z,8.38
2022-12-24T03:23:04.917Z,8.13
2022-12-24T03:25:34.981Z,8.55
2022-12-24T03:28:06.277Z,8.90
2022-12-24T03:30:33.990Z,7.80
2022-12-24T03:33:01.600Z,7.90
2022-12-24T03:35:29.015Z,8.48
2022-12-24T03:37:56.806Z,7.75
2022-12-24T03:40:24.456Z,7.97
2022-12-24T03:42:52.055Z,9.05
2022-12-24T03:45:19.511Z,8.60
2022-12-24T03:47:46.897Z,7.70
2022-12-24T03:50:14.435Z,8.00
2022-12-24T03:52:41.895Z,7.93
2022-12-24T03:55:09.491Z,7.97
2022-12-24T03:57:37.089Z,8.90
2022-12-24T04:00:06.796Z,8.10
2022-12-24T04:02:39.834Z,8.70
2022-12-24T04:05:08.712Z,7.75
2022-12-24T04:07:36.129Z,8.35
2022-12-24T04:10:03.755Z,7.85
2022-12-24T04:12:31.181Z,8.20
2022-12-24T04:14:58.748Z,8.35
2022-12-24T04:17:26.176Z,8.07
2022-12-24T04:19:53.703Z,8.18
2022-12-24T04:22:21.269Z,7.72
2022-12-24T04:24:48.731Z,7.85
2022-12-24T04:27:16.856Z,7.30
2022-12-24T04:29:44.375Z,7.43
2022-12-24T04:32:11.975Z,6.68
2022-12-24T04:34:39.629Z,6.68
2022-12-24T04:37:07.087Z,7.05
2022-12-24T04:39:34.575Z,7.03
2022-12-24T04:42:01.967Z,7.40
2022-12-24T04:44:29.417Z,6.82
2022-12-24T04:46:56.775Z,7.30
2022-12-24T04:49:24.576Z,6.90
2022-12-24T04:51:51.943Z,7.18
2022-12-24T04:54:19.395Z,7.75
2022-12-24T04:56:46.796Z,7.20
2022-12-24T04:59:14.193Z,6.20
2022-12-24T05:01:41.644Z,6.53
2022-12-24T05:04:11.109Z,6.57
2022-12-24T05:06:38.563Z,6.50
2022-12-24T05:09:06.017Z,6.65
2022-12-24T05:11:33.481Z,6.43
2022-12-24T05:14:00.963Z,6.32
2022-12-24T05:16:28.423Z,6.32
2022-12-24T05:18:55.901Z,6.70
2022-12-24T05:21:24.847Z,6.55
2022-12-24T05:24:11.375Z,6.20
2022-12-24T05:26:49.309Z,6.00
2022-12-24T05:29:16.954Z,6.60
2022-12-24T05:31:45.495Z,6.50
2022-12-24T05:34:14.850Z,6.00
2022-12-24T05:36:43.305Z,7.53
2022-12-24T05:39:16.283Z,6.40
2022-12-24T05:41:45.857Z,5.90
2022-12-24T05:44:14.416Z,6.68
2022-12-24T05:46:42.370Z,6.40
2022-12-24T05:51:37.657Z,6.00
2022-12-24T05:54:05.902Z,5.95
2022-12-24T05:56:33.566Z,6.25
2022-12-24T05:59:01.041Z,5.65
2022-12-24T06:01:28.638Z,5.85
2022-12-24T06:03:57.118Z,6.05
2022-12-24T06:06:26.922Z,4.90
2022-12-24T06:08:55.359Z,5.90
2022-12-24T06:11:25.922Z,6.10
2022-12-24T06:13:54.054Z,6.03
2022-12-24T06:16:22.285Z,6.00
2022-12-24T06:21:17.822Z,6.68
2022-12-24T06:26:19.328Z,6.03
2022-12-24T06:28:48.029Z,5.63
2022-12-24T06:31:18.934Z,5.72
2022-12-24T06:33:46.590Z,6.10
2022-12-24T06:36:17.772Z,6.55
2022-12-24T06:38:47.483Z,6.10
2022-12-24T06:41:15.466Z,6.45
2022-12-24T06:43:51.041Z,6.35
2022-12-24T06:46:19.613Z,7.43
2022-12-24T06:48:47.871Z,6.53
2022-12-24T06:56:12.712Z,5.75
2022-12-24T06:58:40.787Z,6.55
2022-12-24T07:03:37.330Z,7.15
2022-12-24T07:06:05.285Z,6.85
2022-12-24T07:08:36.641Z,6.60
2022-12-24T07:11:04.201Z,6.20
2022-12-24T07:13:33.107Z,5.93
2022-12-24T07:16:02.435Z,6.00
2022-12-24T07:18:30.380Z,6.80
2022-12-24T07:20:58.546Z,5.85
2022-12-24T07:23:26.301Z,6.72
2022-12-24T07:25:53.846Z,6.38
2022-12-24T07:28:27.526Z,6.15
2022-12-24T07:30:57.063Z,6.35
2022-12-24T07:33:25.794Z,6.45
2022-12-24T07:36:05.305Z,6.22
2022-12-24T07:38:33.632Z,6.60
2022-12-24T07:41:01.255Z,6.75
2022-12-24T07:43:29.051Z,5.85
2022-12-24T07:48:26.443Z,6.70
2022-12-24T07:50:53.915Z,6.53
2022-12-24T07:53:21.690Z,6.32
2022-12-24T07:55:49.581Z,6.53
2022-12-24T07:58:17.297Z,6.72
2022-12-24T08:00:44.800Z,6.72
2022-12-24T08:03:18.288Z,7.95
2022-12-24T08:05:46.546Z,7.93
2022-12-24T08:10:45.628Z,7.93
2022-12-24T08:13:14.184Z,7.47
2022-12-24T08:15:42.079Z,7.80
2022-12-24T08:18:10.628Z,7.25
2022-12-24T08:20:41.597Z,8.65
2022-12-24T08:23:09.637Z,7.00
2022-12-24T08:25:37.942Z,9.23
2022-12-24T08:30:33.625Z,13.77
2022-12-24T08:33:01.390Z,10.38
2022-12-24T08:35:29.172Z,9.13
2022-12-24T08:37:56.684Z,9.77
2022-12-24T08:40:24.434Z,8.60
2022-12-24T08:42:52.170Z,8.32
2022-12-24T08:45:20.315Z,7.95
2022-12-24T08:50:15.183Z,8.60
2022-12-24T08:52:42.603Z,7.53
2022-12-24T08:55:10.027Z,6.85
2022-12-24T08:57:37.860Z,7.70
2022-12-24T09:00:07.144Z,7.22
2022-12-24T09:02:35.136Z,8.02
2022-12-24T09:07:30.609Z,7.50
2022-12-24T09:09:58.087Z,7.03
2022-12-24T09:12:25.929Z,7.00
2022-12-24T09:14:59.507Z,7.03
2022-12-24T09:17:30.525Z,7.23
2022-12-24T09:19:57.950Z,6.78
2022-12-24T09:22:25.419Z,6.47
2022-12-24T09:24:56.056Z,8.02
2022-12-24T09:27:23.470Z,9.02
2022-12-24T09:29:50.861Z,8.02
2022-12-24T09:32:18.353Z,6.97
2022-12-24T09:34:45.835Z,7.70
2022-12-24T09:37:13.275Z,7.10
2022-12-24T09:39:40.717Z,6.90
2022-12-24T09:42:30.433Z,8.20
2022-12-24T09:45:21.158Z,6.50
2022-12-24T09:47:59.569Z,7.30
2022-12-24T09:50:33.056Z,6.53
2022-12-24T09:53:07.835Z,6.47
2022-12-24T09:55:44.145Z,6.30
2022-12-24T09:58:33.819Z,6.35
2022-12-24T10:01:01.569Z,6.65
2022-12-24T10:03:29.268Z,6.15
2022-12-24T10:06:16.219Z,6.25
2022-12-24T10:09:04.901Z,6.30
2022-12-24T10:11:51.738Z,6.03
2022-12-24T10:14:44.292Z,6.65
2022-12-24T10:17:29.722Z,7.43
2022-12-24T10:20:22.277Z,7.00
2022-12-24T10:22:57.153Z,6.00
2022-12-24T10:25:35.251Z,6.60
2022-12-24T10:28:08.762Z,7.10
2022-12-24T10:30:36.253Z,6.68
2022-12-24T10:33:17.050Z,6.68
2022-12-24T10:35:50.136Z,5.13
2022-12-24T10:38:17.570Z,5.53
2022-12-24T10:40:49.011Z,5.13
2022-12-24T10:43:20.688Z,5.10
2022-12-24T10:46:01.165Z,5.38
2022-12-24T10:48:49.995Z,8.30
2022-12-24T10:51:41.848Z,6.50
2022-12-24T10:54:26.103Z,6.45
2022-12-24T10:57:02.856Z,5.88
2022-12-24T10:59:39.500Z,5.18
2022-12-24T11:02:26.364Z,5.90
2022-12-24T11:04:54.326Z,6.07
2022-12-24T11:07:23.855Z,4.88
2022-12-24T11:09:55.623Z,4.47
2022-12-24T11:12:26.343Z,5.03
2022-12-24T11:15:06.029Z,5.20
2022-12-24T11:17:34.431Z,5.07
2022-12-24T11:20:03.988Z,5.97
2022-12-24T11:22:33.170Z,6.28
2022-12-24T11:25:03.016Z,5.45
2022-12-24T11:27:34.255Z,5.63
2022-12-24T11:30:32.127Z,6.45
2022-12-24T11:33:03.214Z,5.95
2022-12-24T11:35:33.466Z,6.28
2022-12-24T11:38:00.869Z,6.28
2022-12-24T11:40:42.227Z,6.20
2022-12-24T11:43:19.944Z,6.43
2022-12-24T11:45:57.367Z,6.07
2022-12-24T11:48:30.436Z,6.40
2022-12-24T11:51:03.774Z,6.57
2022-12-24T11:53:38.488Z,6.10
2022-12-24T11:56:14.174Z,6.65
2022-12-24T11:58:56.594Z,6.78
2022-12-24T12:01:45.265Z,6.53
2022-12-24T12:04:22.876Z,6.10
2022-12-24T12:07:11.244Z,6.38
2022-12-24T12:09:47.895Z,6.30
2022-12-24T12:12:21.125Z,7.70
2022-12-24T12:14:53.493Z,7.03
2022-12-24T12:17:51.782Z,6.47
2022-12-24T12:20:27.293Z,6.60
2022-12-24T12:23:13.611Z,7.00
2022-12-24T12:26:04.479Z,7.28
2022-12-24T12:28:41.154Z,7.28
2022-12-24T12:31:30.591Z,7.40
2022-12-24T12:34:11.630Z,7.78
2022-12-24T12:36:51.150Z,6.65
2022-12-24T12:39:23.719Z,7.30
2022-12-24T12:42:06.226Z,7.03
2022-12-24T12:44:36.549Z,7.22
2022-12-24T12:47:13.025Z,7.80
2022-12-24T12:50:01.705Z,7.53
2022-12-24T12:52:53.720Z,6.63
2022-12-24T12:55:42.822Z,6.40
2022-12-24T12:58:21.944Z,6.53
2022-12-24T13:00:55.038Z,7.93
2022-12-24T13:03:31.357Z,6.85
2022-12-24T13:06:36.452Z,6.63
2022-12-24T13:09:40.181Z,6.38
2022-12-24T13:12:29.856Z,6.55
2022-12-24T13:15:25.755Z,6.68
2022-12-24T13:17:56.390Z,6.97
2022-12-24T13:20:29.583Z,6.85
2022-12-24T13:23:01.242Z,7.80
2022-12-24T13:25:41.900Z,6.60
2022-12-24T13:28:37.137Z,7.03
2022-12-24T13:31:20.047Z,7.30
2022-12-24T13:33:49.872Z,7.75
2022-12-24T13:36:19.611Z,7.15
2022-12-24T13:38:59.997Z,7.55
2022-12-24T13:41:38.677Z,7.00
2022-12-24T13:44:06.548Z,7.68
2022-12-24T13:46:50.193Z,7.60
2022-12-24T13:49:26.770Z,7.55
2022-12-24T13:52:06.591Z,7.93
2022-12-24T13:54:35.490Z,7.82
2022-12-24T13:57:22.948Z,6.85
2022-12-24T14:00:02.277Z,7.28
2022-12-24T14:02:57.319Z,8.32
2022-12-24T14:05:32.759Z,7.70
2022-12-24T14:08:04.273Z,7.93
2022-12-24T14:10:42.113Z,7.75
2022-12-24T14:13:38.428Z,7.78
2022-12-24T14:16:12.021Z,7.88
2022-12-24T14:18:42.093Z,7.47
2022-12-24T14:21:53.595Z,8.13
2022-12-24T14:24:28.052Z,8.68
2022-12-24T14:27:01.731Z,8.70
2022-12-24T14:29:33.877Z,8.35
2022-12-24T14:32:04.494Z,7.65
2022-12-24T14:34:32.363Z,8.23
2022-12-24T14:37:03.302Z,8.43
2022-12-24T14:39:37.681Z,7.97
2022-12-24T14:42:14.152Z,8.57
2022-12-24T14:44:50.970Z,7.95
2022-12-24T14:47:41.601Z,7.78
2022-12-24T14:50:28.218Z,7.25
2022-12-24T14:53:18.788Z,7.95
2022-12-24T14:55:48.860Z,8.05
2022-12-24T14:58:26.426Z,8.00
2022-12-24T15:01:03.953Z,8.23
2022-12-24T15:03:33.044Z,9.55
2022-12-24T15:06:06.764Z,8.73
2022-12-24T15:08:40.499Z,9.77
2022-12-24T15:11:10.565Z,8.35
2022-12-24T15:13:41.511Z,8.82
2022-12-24T15:16:12.417Z,8.15
2022-12-24T15:18:46.292Z,7.88
2022-12-24T15:21:37.426Z,8.50
2022-12-24T15:24:05.236Z,8.65
2022-12-24T15:26:36.496Z,10.32
2022-12-24T15:29:29.251Z,9.73
2022-12-24T15:32:01.719Z,8.52
2022-12-24T15:34:36.409Z,8.60
2022-12-24T15:37:26.507Z,8.35
2022-12-24T15:40:01.158Z,7.93
2022-12-24T15:42:28.813Z,7.47
2022-12-24T15:45:07.559Z,7.97
2022-12-24T15:47:45.281Z,7.90
2022-12-24T15:50:43.133Z,8.05
2022-12-24T15:56:11.820Z,7.80
2022-12-24T15:58:44.585Z,8.70
2022-12-24T16:01:15.395Z,7.57
2022-12-24T16:03:49.420Z,9.77
2022-12-24T16:06:17.947Z,8.20
2022-12-24T16:11:29.930Z,7.82
2022-12-24T16:14:00.327Z,8.45
2022-12-24T16:16:37.090Z,8.55
2022-12-24T16:19:07.127Z,9.35
2022-12-24T16:21:36.927Z,9.07
2022-12-24T16:24:19.021Z,8.90
2022-12-24T16:26:46.907Z,8.35
2022-12-24T16:29:15.476Z,9.05
2022-12-24T16:31:52.245Z,9.65
2022-12-24T16:34:23.859Z,9.10
2022-12-24T16:36:51.479Z,9.02
2022-12-24T16:39:24.768Z,9.35
2022-12-24T16:42:16.338Z,8.77
2022-12-24T16:44:44.385Z,10.23
2022-12-24T16:47:19.449Z,9.88
2022-12-24T16:49:46.872Z,10.32
2022-12-24T16:52:28.435Z,10.77
2022-12-24T16:54:57.307Z,10.85
2022-12-24T16:57:24.895Z,9.93
2022-12-24T16:59:53.288Z,10.63
2022-12-24T17:02:22.915Z,10.40
2022-12-24T17:04:50.769Z,10.02
2022-12-24T17:07:20.355Z,9.75
2022-12-24T17:09:48.204Z,10.60
2022-12-24T17:12:15.898Z,10.27
2022-12-24T17:14:43.540Z,11.05
2022-12-24T17:17:26.164Z,11.35
2022-12-24T17:19:54.832Z,9.40
2022-12-24T17:22:22.731Z,10.32
2022-12-24T17:24:50.209Z,12.32
2022-12-24T17:27:17.626Z,11.30
2022-12-24T17:29:45.339Z,13.60
2022-12-24T17:32:12.763Z,11.52
2022-12-24T17:34:40.554Z,10.10
2022-12-24T17:37:07.957Z,9.82
2022-12-24T17:39:35.386Z,10.15
2022-12-24T17:42:03.503Z,11.13
2022-12-24T17:44:31.100Z,9.77
2022-12-24T17:46:58.773Z,11.85
2022-12-24T17:49:26.671Z,9.20
2022-12-24T17:51:54.093Z,9.00
2022-12-24T17:54:21.561Z,9.45
2022-12-24T17:56:49.064Z,8.20
2022-12-24T17:59:16.495Z,9.43
2022-12-24T18:01:43.951Z,9.02
2022-12-24T18:04:11.624Z,9.48
2022-12-24T18:06:44.151Z,9.38
2022-12-24T18:09:14.808Z,11.27
2022-12-24T18:11:42.273Z,8.38
2022-12-24T18:14:12.134Z,8.93
2022-12-24T18:16:41.273Z,9.77
2022-12-24T18:19:11.999Z,9.38
2022-12-24T18:21:40.287Z,9.25
2022-12-24T18:26:36.367Z,6.00
2022-12-24T18:29:08.886Z,7.90
2022-12-24T18:31:36.742Z,7.15
2022-12-24T18:34:06.658Z,7.32
2022-12-24T18:36:34.860Z,6.53
2022-12-24T18:41:30.726Z,6.38
2022-12-24T18:43:59.493Z,6.53
2022-12-24T18:46:30.217Z,6.72
2022-12-24T18:48:59.612Z,5.07
2022-12-24T18:51:30.466Z,5.63
2022-12-24T18:53:58.159Z,5.40
2022-12-24T18:56:26.925Z,5.13
2022-12-24T18:59:00.311Z,5.28
2022-12-24T19:01:31.217Z,5.07
2022-12-24T19:04:00.343Z,6.40
2022-12-24T19:06:27.868Z,5.20
2022-12-24T19:08:57.752Z,4.68
2022-12-24T19:11:28.407Z,4.07
2022-12-24T19:13:57.932Z,5.50
2022-12-24T19:16:26.595Z,4.85
2022-12-24T19:18:54.282Z,4.82
2022-12-24T19:21:21.745Z,4.60
2022-12-24T19:23:49.463Z,5.50
2022-12-24T19:26:18.683Z,4.55
2022-12-24T19:28:46.487Z,4.55
2022-12-24T19:31:17.138Z,4.30
2022-12-24T19:33:47.511Z,5.28
2022-12-24T19:36:21.149Z,4.45
2022-12-24T19:38:48.655Z,5.10
2022-12-24T19:41:22.244Z,4.70
2022-12-24T19:43:52.227Z,4.20
2022-12-24T19:46:22.481Z,4.07
2022-12-24T19:48:52.314Z,3.63
2022-12-24T19:51:20.685Z,3.75
2022-12-24T19:53:48.672Z,3.45
2022-12-24T19:56:21.100Z,4.50
2022-12-24T19:58:48.882Z,4.38
2022-12-24T20:01:22.473Z,3.80
2022-12-24T20:03:51.431Z,4.22
2022-12-24T20:06:21.909Z,3.58
2022-12-24T20:08:50.811Z,3.58
2022-12-24T20:11:20.800Z,4.25
2022-12-24T20:13:48.280Z,3.15
2022-12-24T20:16:20.879Z,2.97
2022-12-24T20:18:56.573Z,3.53
2022-12-24T20:21:25.182Z,3.20
2022-12-24T20:23:53.631Z,3.75
2022-12-24T20:28:52.216Z,3.53
2022-12-24T20:31:21.433Z,3.05
2022-12-24T20:33:49.237Z,3.20
2022-12-24T20:36:19.596Z,3.53
2022-12-24T20:38:47.890Z,3.00
2022-12-24T20:43:48.324Z,2.90
2022-12-24T20:46:17.724Z,3.40
2022-12-24T20:48:45.639Z,3.22
2022-12-24T20:51:24.565Z,3.05
2022-12-24T20:53:58.810Z,3.40
2022-12-24T20:56:26.881Z,3.15
2022-12-24T20:58:54.284Z,3.13
2022-12-24T21:01:25.222Z,3.40
2022-12-24T21:03:56.955Z,3.25
2022-12-24T21:06:24.933Z,3.90
2022-12-24T21:08:53.597Z,3.15
2022-12-24T21:11:41.198Z,3.40
2022-12-24T21:14:09.307Z,3.85
2022-12-24T21:16:38.185Z,3.75
2022-12-24T21:19:07.537Z,3.28
2022-12-24T21:21:35.689Z,3.42
2022-12-24T21:24:03.774Z,3.30
2022-12-24T21:26:32.125Z,3.03
2022-12-24T21:29:01.394Z,3.08
2022-12-24T21:31:29.305Z,2.60
2022-12-24T21:33:57.412Z,2.70
2022-12-24T21:36:25.150Z,2.60
2022-12-24T21:38:53.806Z,3.20
2022-12-24T21:41:26.004Z,2.70
2022-12-24T21:43:53.583Z,2.97
2022-12-24T21:46:25.069Z,3.03
2022-12-24T21:49:13.080Z,2.40
2022-12-24T21:51:41.640Z,2.95
2022-12-24T21:54:25.249Z,2.83
2022-12-24T21:57:18.008Z,3.10
2022-12-24T21:59:45.872Z,2.78
2022-12-24T22:02:15.317Z,2.97
2022-12-24T22:04:43.008Z,3.67
2022-12-24T22:07:38.029Z,3.58
2022-12-24T22:10:24.993Z,2.75
2022-12-24T22:12:53.536Z,3.42
2022-12-24T22:15:21.246Z,3.50
2022-12-24T22:17:48.823Z,3.30
2022-12-24T22:20:16.427Z,3.33
2022-12-24T22:22:43.842Z,3.05
2022-12-24T22:25:11.278Z,3.15
2022-12-24T22:27:38.673Z,2.85
2022-12-24T22:30:07.389Z,2.97
2022-12-24T22:32:34.828Z,2.90
2022-12-24T22:35:02.373Z,3.22
2022-12-24T22:37:29.836Z,2.58
2022-12-24T22:39:57.268Z,2.42
2022-12-24T22:42:24.747Z,2.95
2022-12-24T22:44:52.154Z,2.60
2022-12-24T22:47:19.568Z,2.92
2022-12-24T22:49:48.674Z,3.13
2022-12-24T22:52:16.400Z,2.35
2022-12-24T22:54:43.912Z,2.80
2022-12-24T22:57:11.762Z,3.03
2022-12-24T22:59:39.889Z,2.35
2022-12-24T23:02:08.023Z,2.70
2022-12-24T23:04:40.147Z,2.80
2022-12-24T23:07:09.677Z,2.28
2022-12-24T23:09:37.249Z,2.20
2022-12-24T23:12:06.006Z,2.90
2022-12-24T23:14:52.032Z,2.78
2022-12-24T23:17:19.536Z,2.63
2022-12-24T23:19:47.019Z,2.63
2022-12-24T23:22:14.597Z,2.67
2022-12-24T23:24:42.064Z,2.47
2022-12-24T23:27:09.580Z,2.63
2022-12-24T23:29:37.018Z,2.47
2022-12-24T23:32:04.634Z,2.55
2022-12-24T23:34:32.200Z,2.80
2022-12-24T23:36:59.671Z,2.47
2022-12-24T23:39:27.295Z,2.22
2022-12-24T23:41:54.720Z,2.15
2022-12-24T23:44:26.693Z,2.50
2022-12-24T23:46:57.745Z,2.00
2022-12-24T23:49:25.237Z,2.05
2022-12-24T23:51:52.644Z,2.28
2022-12-24T23:54:20.198Z,2.33
2022-12-24T23:56:47.624Z,1.85
2022-12-24T23:59:15.091Z,2.00
